Impacts METAR Board
IDs:

KPIE - St Petersburg/Clearw, FL, US

Updated at: 2100 UTC 30 Jun 2022
Potential Impact None Slight Moderate High
Time 30/09Z 30/10Z 30/11Z 30/12Z 30/13Z 30/14Z 30/15Z 30/16Z 30/17Z 30/18Z 30/19Z 30/20Z 30/21Z
Temp78 78 79 81 83 85 86 87 88 88 86 89 88
Dewpt75 75 74 75 75 74 73 71 73 73 74 77 76
Altim30.10 30.10 30.11 30.12 30.14 30.14 30.14 30.13 30.12 30.11 30.09 30.07 30.06
VIS10 10 10 10 10 10 10 10 10 10 10 10 10
CIG-- -- -- -- -- -- -- -- -- -- -- -- --
CoverCLRCLRCLRCLRCLRCLRCLRCLRSCTSCTSCTSCTFEW
FltCatVFRVFRVFRVFRVFRVFRVFRVFRVFRVFRVFRVFRVFR
WX------------------TSVCTS----
WDir11013011011011060606050240280290300
WSpd3 4 5 5 7 6 7 7 5 9 6 10 10
WGst-- -- -- -- -- -- -- -- -- -- -- -- --
Raw hourly METARs
KPIE 300853Z AUTO 11003KT 10SM CLR 26/24 A3010 RMK AO2 SLP192 T02560239 55016
KPIE 300953Z 13004KT 10SM CLR 26/24 A3010 RMK AO2 SLP192 T02560239
KPIE 301053Z 11005KT 10SM CLR 26/23 A3011 RMK AO2 SLP195 T02610233
KPIE 301153Z 11005KT 10SM CLR 27/24 A3012 RMK AO2 SLP200 T02720239 10272 20250 53008
KPIE 301253Z 11007KT 10SM CLR 28/24 A3014 RMK AO2 SLP204 T02830239
KPIE 301353Z 06006KT 10SM CLR 29/23 A3014 RMK AO2 SLP206 T02940233
KPIE 301453Z 06007KT 10SM CLR 30/23 A3014 RMK AO2 SLP205 T03000228 50005
KPIE 301553Z 06007KT 10SM CLR 31/22 A3013 RMK AO2 SLP204 T03060217
KPIE 301653Z 05005KT 10SM SCT035 31/23 A3012 RMK AO2 SLP199 T03110228
KPIE 301753Z 24009KT 10SM TS SCT035 31/23 A3011 RMK AO2 TSB24 SLP195 T03110228 10328 20272 58010
KPIE 301853Z 28006KT 10SM VCTS SCT036 30/23 A3009 RMK AO2 TSE1756B1757E21 SLP189 T03000233
KPIE 301953Z 29010KT 10SM SCT036 32/25 A3007 RMK AO2 LTG DSNT N-SE SLP181 T03170250
KPIE 302053Z 30010KT 10SM FEW080 31/24 A3006 RMK AO2 LTG DSNT NE AND E SLP179 T03110244 56016



Page loaded:  21:44 UTC  |   02:44 PM Pacific  |   03:44 PM Mountain  |   04:44 PM Central  |   05:44 PM Eastern

 

ADVISORIES

FORECASTS

FORECASTS

OBSERVATIONS

USER TOOLS

ABOUT US